Time;durP1;ratioP1;P1;durP2;ratioP2;P2;SDS_P1;SDS_P2;PMS_P1;PMS_P2;Temp;Humidity;BMP_temperature;BMP_pressure;BME280_temperature;BME280_humidity;BME280_pressure;Samples;Min_cycle;Max_cycle;Signal;HPM_P1;HPM_P2
2022/12/12 00:01:30;;;;;;;74.97;22.73;;;;;;;;;;5031268;28;20064;-79
2022/12/12 00:03:57;;;;;;;75.25;23.63;;;;;;;;;;5034282;28;20055;-79
2022/12/12 00:06:23;;;;;;;76.07;23.55;;;;;;;;;;5034065;28;20042;-80
2022/12/12 00:08:50;;;;;;;67.95;22.63;;;;;;;;;;5035607;28;20053;-79
2022/12/12 00:11:17;;;;;;;72.72;21.58;;;;;;;;;;5034836;28;20049;-79
2022/12/12 00:13:44;;;;;;;68.38;21.52;;;;;;;;;;5033553;28;20057;-79
2022/12/12 00:16:10;;;;;;;72.80;22.15;;;;;;;;;;5042388;28;20486;-79
2022/12/12 00:18:37;;;;;;;70.72;22.60;;;;;;;;;;5069426;28;20053;-79
2022/12/12 00:21:06;;;;;;;62.47;20.88;;;;;;;;;;5076495;28;20090;-79
2022/12/12 00:23:32;;;;;;;69.50;21.48;;;;;;;;;;5075208;28;20045;-80
2022/12/12 00:26:01;;;;;;;66.93;21.55;;;;;;;;;;5075311;28;20045;-80
2022/12/12 00:28:27;;;;;;;65.93;21.92;;;;;;;;;;5075479;28;20055;-79
2022/12/12 00:30:54;;;;;;;73.47;21.92;;;;;;;;;;5074407;28;20102;-79
2022/12/12 00:33:21;;;;;;;66.68;21.88;;;;;;;;;;5074482;28;20044;-79
2022/12/12 00:35:54;;;;;;;73.80;22.27;;;;;;;;;;5075546;28;20044;-80
2022/12/12 00:38:21;;;;;;;59.40;20.58;;;;;;;;;;5075942;28;20485;-79
2022/12/12 00:40:47;;;;;;;75.78;22.42;;;;;;;;;;5075243;28;20044;-80
2022/12/12 00:43:14;;;;;;;70.38;20.83;;;;;;;;;;5080012;28;20044;-80
2022/12/12 00:45:40;;;;;;;60.47;20.65;;;;;;;;;;5077414;28;20051;-81
2022/12/12 00:48:08;;;;;;;63.95;20.92;;;;;;;;;;5059945;28;20048;-80
2022/12/12 00:50:34;;;;;;;64.20;21.20;;;;;;;;;;5075800;28;20044;-80
2022/12/12 00:53:00;;;;;;;66.90;21.30;;;;;;;;;;5074472;28;20052;-78
2022/12/12 00:55:27;;;;;;;63.85;20.33;;;;;;;;;;5057434;28;20383;-80
2022/12/12 00:57:53;;;;;;;66.30;22.10;;;;;;;;;;5058282;28;20052;-80
2022/12/12 01:00:21;;;;;;;61.08;20.92;;;;;;;;;;5086848;28;20057;-81
2022/12/12 01:02:47;;;;;;;68.57;22.23;;;;;;;;;;5054191;28;20068;-81
2022/12/12 01:05:14;;;;;;;62.78;20.45;;;;;;;;;;5056142;28;20100;-81
2022/12/12 01:07:41;;;;;;;60.00;20.08;;;;;;;;;;5056290;28;20128;-81
2022/12/12 01:10:08;;;;;;;66.88;21.55;;;;;;;;;;5055504;28;20052;-80
2022/12/12 01:12:35;;;;;;;63.50;21.27;;;;;;;;;;5056139;28;20067;-82
2022/12/12 01:15:03;;;;;;;65.68;19.65;;;;;;;;;;5046250;28;20057;-80
2022/12/12 01:17:36;;;;;;;66.20;21.15;;;;;;;;;;5055493;28;20068;-82
2022/12/12 01:20:07;;;;;;;69.68;21.08;;;;;;;;;;5055719;28;20494;-81
2022/12/12 01:22:34;;;;;;;58.75;20.65;;;;;;;;;;5054212;28;20065;-81
2022/12/12 01:25:00;;;;;;;60.72;20.65;;;;;;;;;;5054841;28;20441;-80
2022/12/12 01:27:26;;;;;;;68.50;21.30;;;;;;;;;;5055750;28;20081;-81
2022/12/12 01:29:54;;;;;;;68.13;21.70;;;;;;;;;;5035717;28;20047;-81
2022/12/12 01:32:21;;;;;;;66.18;20.40;;;;;;;;;;5053066;28;20047;-80
2022/12/12 01:34:47;;;;;;;65.53;21.58;;;;;;;;;;5054156;28;20049;-81
2022/12/12 01:37:14;;;;;;;65.90;21.92;;;;;;;;;;5053863;28;20540;-81
2022/12/12 01:39:40;;;;;;;64.45;21.27;;;;;;;;;;5054665;28;20057;-81
2022/12/12 01:42:14;;;;;;;68.45;21.80;;;;;;;;;;5053476;28;20355;-81
2022/12/12 01:44:43;;;;;;;67.80;21.20;;;;;;;;;;5034127;28;20057;-81
2022/12/12 01:47:11;;;;;;;63.85;20.40;;;;;;;;;;5053510;28;20052;-81
2022/12/12 01:49:38;;;;;;;62.35;19.58;;;;;;;;;;5054263;28;20056;-80
2022/12/12 01:52:07;;;;;;;70.93;22.02;;;;;;;;;;5054041;28;20052;-82
2022/12/12 01:54:38;;;;;;;60.95;19.92;;;;;;;;;;5052307;28;20344;-80
2022/12/12 01:57:06;;;;;;;71.80;21.38;;;;;;;;;;5052311;28;20049;-81
2022/12/12 01:59:33;;;;;;;65.85;20.33;;;;;;;;;;5052297;28;20063;-80
2022/12/12 02:01:59;;;;;;;59.97;21.00;;;;;;;;;;5054416;28;20140;-80
2022/12/12 02:04:29;;;;;;;62.08;20.10;;;;;;;;;;5051659;28;20076;-79
2022/12/12 02:06:56;;;;;;;67.78;21.50;;;;;;;;;;5053823;28;20060;-80
2022/12/12 02:09:24;;;;;;;64.07;20.25;;;;;;;;;;5053408;28;20075;-81
2022/12/12 02:11:52;;;;;;;65.60;21.02;;;;;;;;;;5054203;28;20359;-80
2022/12/12 02:14:39;;;;;;;63.30;20.50;;;;;;;;;;5052395;28;20147;-80
2022/12/12 02:17:41;;;;;;;56.63;19.17;;;;;;;;;;5055065;28;20057;-82
2022/12/12 02:20:13;;;;;;;63.53;18.83;;;;;;;;;;5011334;28;20046;-81
2022/12/12 02:23:15;;;;;;;60.33;19.70;;;;;;;;;;5056316;28;20052;-80
2022/12/12 02:25:50;;;;;;;60.67;19.52;;;;;;;;;;5002632;28;20046;-81
2022/12/12 02:28:16;;;;;;;67.55;20.15;;;;;;;;;;5070208;28;20048;-80
2022/12/12 02:31:01;;;;;;;68.97;19.92;;;;;;;;;;5094050;28;20052;-82
2022/12/12 02:33:34;;;;;;;63.90;19.75;;;;;;;;;;5072533;28;20059;-80
2022/12/12 02:36:07;;;;;;;56.63;19.52;;;;;;;;;;5050628;28;20057;-80
2022/12/12 02:38:57;;;;;;;54.08;18.85;;;;;;;;;;5014434;28;20053;-81
2022/12/12 02:41:43;;;;;;;63.05;18.90;;;;;;;;;;5032818;28;20064;-80
2022/12/12 02:44:27;;;;;;;63.15;19.58;;;;;;;;;;5032284;28;20115;-81
2022/12/12 02:46:59;;;;;;;64.30;19.63;;;;;;;;;;5032253;28;20390;-81
2022/12/12 02:49:40;;;;;;;60.78;20.25;;;;;;;;;;5045477;28;20091;-81
2022/12/12 02:52:08;;;;;;;58.67;18.77;;;;;;;;;;5034777;28;20050;-82
2022/12/12 02:54:34;;;;;;;55.53;19.38;;;;;;;;;;5052055;28;20055;-80
2022/12/12 02:57:01;;;;;;;60.47;19.75;;;;;;;;;;5051888;28;20036;-81
2022/12/12 02:59:36;;;;;;;56.33;19.73;;;;;;;;;;5049049;28;20054;-80
2022/12/12 03:02:17;;;;;;;55.75;19.25;;;;;;;;;;5034030;28;20081;-80
2022/12/12 03:07:46;;;;;;;53.97;19.27;;;;;;;;;;5037765;28;20056;-80
2022/12/12 03:10:18;;;;;;;56.70;18.75;;;;;;;;;;5037596;28;20068;-79
2022/12/12 03:12:51;;;;;;;55.28;19.80;;;;;;;;;;5051233;28;20128;-80
2022/12/12 03:15:21;;;;;;;55.80;19.08;;;;;;;;;;5052042;28;20045;-80
2022/12/12 03:18:07;;;;;;;58.60;18.83;;;;;;;;;;5067890;28;20049;-80
2022/12/12 03:20:44;;;;;;;54.78;18.50;;;;;;;;;;5077622;28;20060;-80
2022/12/12 03:23:14;;;;;;;52.20;18.77;;;;;;;;;;5075171;28;20053;-80
2022/12/12 03:25:40;;;;;;;58.92;18.80;;;;;;;;;;5076141;28;20048;-80
2022/12/12 03:28:09;;;;;;;56.70;19.02;;;;;;;;;;5075734;28;20044;-80
2022/12/12 03:30:47;;;;;;;54.97;18.55;;;;;;;;;;5076050;28;20041;-81
2022/12/12 03:33:13;;;;;;;56.75;18.85;;;;;;;;;;5076865;28;20469;-81
2022/12/12 03:35:46;;;;;;;56.00;17.83;;;;;;;;;;5078809;28;20421;-81
2022/12/12 03:38:16;;;;;;;57.67;18.60;;;;;;;;;;5078111;28;20057;-81
2022/12/12 03:40:48;;;;;;;59.85;19.00;;;;;;;;;;5079046;28;20066;-81
2022/12/12 03:43:17;;;;;;;50.35;17.15;;;;;;;;;;5075657;28;20044;-81
2022/12/12 03:45:50;;;;;;;57.17;18.70;;;;;;;;;;5075891;28;20050;-81
2022/12/12 03:48:22;;;;;;;55.47;18.20;;;;;;;;;;5076379;28;20079;-80
2022/12/12 03:50:51;;;;;;;58.00;18.35;;;;;;;;;;5076561;28;20051;-81
2022/12/12 03:53:17;;;;;;;51.95;17.13;;;;;;;;;;5057728;28;20040;-81
2022/12/12 03:55:48;;;;;;;44.55;15.63;;;;;;;;;;5075620;28;20052;-80
2022/12/12 03:58:30;;;;;;;48.80;17.30;;;;;;;;;;5093149;28;20062;-81
2022/12/12 04:00:57;;;;;;;47.47;16.33;;;;;;;;;;5077685;28;20048;-81
2022/12/12 04:03:25;;;;;;;51.10;18.30;;;;;;;;;;5076683;28;20048;-81
2022/12/12 04:08:38;;;;;;;52.47;16.65;;;;;;;;;;5037172;28;20576;-80
2022/12/12 04:13:56;;;;;;;50.50;16.40;;;;;;;;;;5035509;28;20041;-81
2022/12/12 04:16:24;;;;;;;45.42;15.75;;;;;;;;;;5061424;28;20505;-79
2022/12/12 04:19:02;;;;;;;50.17;17.25;;;;;;;;;;5067414;28;20484;-81
2022/12/12 04:24:39;;;;;;;49.38;15.60;;;;;;;;;;5067585;28;20055;-80
2022/12/12 04:27:08;;;;;;;52.90;16.90;;;;;;;;;;5055039;28;20047;-80
2022/12/12 04:29:37;;;;;;;48.10;15.98;;;;;;;;;;5054028;28;20488;-80
2022/12/12 04:32:07;;;;;;;52.05;17.92;;;;;;;;;;5053286;28;20045;-78
2022/12/12 04:34:33;;;;;;;51.38;17.13;;;;;;;;;;5053988;28;20053;-82
2022/12/12 04:37:01;;;;;;;48.83;17.42;;;;;;;;;;5053929;28;20068;-81
2022/12/12 04:39:28;;;;;;;50.08;16.63;;;;;;;;;;5054620;28;20053;-82
2022/12/12 04:41:56;;;;;;;46.53;16.27;;;;;;;;;;5037985;28;20048;-80
2022/12/12 04:44:23;;;;;;;62.35;18.13;;;;;;;;;;5053513;28;20045;-80
2022/12/12 04:46:52;;;;;;;47.20;16.38;;;;;;;;;;5053269;28;20045;-80
2022/12/12 04:49:21;;;;;;;50.78;17.65;;;;;;;;;;5056829;28;20045;-80
2022/12/12 04:51:48;;;;;;;54.58;16.45;;;;;;;;;;5055190;28;20056;-79
2022/12/12 04:54:19;;;;;;;46.20;16.63;;;;;;;;;;5054852;28;20485;-79
2022/12/12 04:56:49;;;;;;;49.00;17.05;;;;;;;;;;5055228;28;20543;-79
2022/12/12 04:59:16;;;;;;;51.63;17.02;;;;;;;;;;5037070;28;20063;-80
2022/12/12 05:01:42;;;;;;;48.50;17.27;;;;;;;;;;5054899;28;20048;-80
2022/12/12 05:04:22;;;;;;;44.95;15.95;;;;;;;;;;5058594;28;20222;-80
2022/12/12 05:06:52;;;;;;;40.83;12.40;;;;;;;;;;5037291;28;20527;-79
2022/12/12 05:09:18;;;;;;;43.50;15.18;;;;;;;;;;5055482;28;20290;-80
2022/12/12 05:11:44;;;;;;;46.45;15.57;;;;;;;;;;5056000;28;20060;-81
2022/12/12 05:14:14;;;;;;;39.25;13.85;;;;;;;;;;5053137;28;20052;-81
2022/12/12 05:16:44;;;;;;;42.67;14.48;;;;;;;;;;5042579;28;20075;-80
2022/12/12 05:19:11;;;;;;;41.78;14.10;;;;;;;;;;5070074;28;20052;-80
2022/12/12 05:21:37;;;;;;;43.38;14.88;;;;;;;;;;5074172;28;20079;-82
2022/12/12 05:24:03;;;;;;;39.97;14.25;;;;;;;;;;5068967;28;20056;-79
2022/12/12 05:26:31;;;;;;;42.78;15.23;;;;;;;;;;5054676;28;20434;-78
2022/12/12 05:28:58;;;;;;;46.10;15.18;;;;;;;;;;5073714;28;20048;-80
2022/12/12 05:31:32;;;;;;;39.70;13.82;;;;;;;;;;5073287;28;20098;-80
2022/12/12 05:33:58;;;;;;;37.00;14.43;;;;;;;;;;5074607;28;20048;-81
2022/12/12 05:36:25;;;;;;;35.72;13.18;;;;;;;;;;5075024;28;20052;-81
2022/12/12 05:38:51;;;;;;;40.38;14.70;;;;;;;;;;5072368;28;20052;-80
2022/12/12 05:41:17;;;;;;;36.50;12.90;;;;;;;;;;5073657;28;20049;-81
2022/12/12 05:43:44;;;;;;;42.85;13.70;;;;;;;;;;5072253;28;20055;-82
2022/12/12 05:46:10;;;;;;;37.42;13.48;;;;;;;;;;5073895;28;20493;-81
2022/12/12 05:48:37;;;;;;;36.88;13.02;;;;;;;;;;5080458;28;20035;-81
2022/12/12 05:51:03;;;;;;;36.55;12.70;;;;;;;;;;5091092;28;20044;-81
2022/12/12 05:53:30;;;;;;;36.60;14.00;;;;;;;;;;5085410;28;20116;-80
2022/12/12 05:55:56;;;;;;;36.22;12.80;;;;;;;;;;5069636;28;20056;-82
2022/12/12 05:58:23;;;;;;;37.85;12.32;;;;;;;;;;5069872;28;20052;-81
2022/12/12 06:00:50;;;;;;;37.28;13.20;;;;;;;;;;5068884;28;20045;-83
2022/12/12 06:03:17;;;;;;;34.25;13.18;;;;;;;;;;5069915;28;20033;-82
2022/12/12 06:05:43;;;;;;;32.50;12.63;;;;;;;;;;5055561;28;20033;-81
2022/12/12 06:08:09;;;;;;;36.03;13.40;;;;;;;;;;5055295;28;20025;-81
2022/12/12 06:10:36;;;;;;;33.78;12.13;;;;;;;;;;5072839;28;20057;-81
2022/12/12 06:13:02;;;;;;;35.38;12.95;;;;;;;;;;5071392;28;20039;-82
2022/12/12 06:15:29;;;;;;;30.98;12.27;;;;;;;;;;5071925;28;20032;-82
2022/12/12 06:17:57;;;;;;;26.33;10.13;;;;;;;;;;5088642;28;20048;-80
2022/12/12 06:20:23;;;;;;;30.73;11.32;;;;;;;;;;5093252;28;20066;-82
2022/12/12 06:22:50;;;;;;;34.65;11.70;;;;;;;;;;5091782;28;20040;-81
2022/12/12 06:25:19;;;;;;;31.13;12.00;;;;;;;;;;5090314;28;20120;-82
2022/12/12 06:27:46;;;;;;;31.23;12.02;;;;;;;;;;5093007;28;20044;-81
2022/12/12 06:30:12;;;;;;;35.05;12.95;;;;;;;;;;5092118;28;20044;-83
2022/12/12 06:32:38;;;;;;;29.63;11.57;;;;;;;;;;5090351;28;20049;-82
2022/12/12 06:35:05;;;;;;;28.95;11.00;;;;;;;;;;5074871;28;20096;-78
2022/12/12 06:37:32;;;;;;;31.13;12.32;;;;;;;;;;5092383;28;20048;-82
2022/12/12 06:39:58;;;;;;;33.10;11.45;;;;;;;;;;5094489;28;20037;-83
2022/12/12 06:42:24;;;;;;;33.13;11.65;;;;;;;;;;5095841;28;20076;-82
2022/12/12 06:44:51;;;;;;;34.55;12.52;;;;;;;;;;5095155;28;20322;-81
2022/12/12 06:47:17;;;;;;;31.63;11.02;;;;;;;;;;5095882;28;20116;-82
2022/12/12 06:49:44;;;;;;;31.98;11.32;;;;;;;;;;5096475;28;20029;-82
2022/12/12 06:52:10;;;;;;;31.35;11.40;;;;;;;;;;5096067;28;20771;-81
2022/12/12 06:54:36;;;;;;;33.72;11.52;;;;;;;;;;5096225;28;20108;-82
2022/12/12 06:57:03;;;;;;;28.98;10.73;;;;;;;;;;5097062;28;20045;-82
2022/12/12 06:59:29;;;;;;;32.03;11.45;;;;;;;;;;5096366;28;20036;-82
2022/12/12 07:01:56;;;;;;;30.20;11.50;;;;;;;;;;5095929;28;20115;-81
2022/12/12 07:04:22;;;;;;;28.30;11.18;;;;;;;;;;5076898;28;20052;-81
2022/12/12 07:06:49;;;;;;;32.92;12.25;;;;;;;;;;5075038;28;20461;-79
2022/12/12 07:09:15;;;;;;;31.83;12.35;;;;;;;;;;5074775;28;20052;-81
2022/12/12 07:11:42;;;;;;;30.38;12.13;;;;;;;;;;5073865;28;20531;-80
2022/12/12 07:14:08;;;;;;;30.30;11.57;;;;;;;;;;5073482;28;20294;-81
2022/12/12 07:16:35;;;;;;;36.33;11.52;;;;;;;;;;5054561;28;20485;-80
2022/12/12 07:19:01;;;;;;;34.13;11.23;;;;;;;;;;5055166;28;20152;-81
2022/12/12 07:21:27;;;;;;;31.17;11.80;;;;;;;;;;5056155;28;20063;-82
2022/12/12 07:23:57;;;;;;;34.33;11.65;;;;;;;;;;5073852;28;20415;-80
2022/12/12 07:26:25;;;;;;;31.88;11.70;;;;;;;;;;5074292;28;20054;-80
2022/12/12 07:28:51;;;;;;;32.40;11.98;;;;;;;;;;5073991;28;20052;-81
2022/12/12 07:31:19;;;;;;;37.75;12.30;;;;;;;;;;5054977;28;20083;-80
2022/12/12 07:33:46;;;;;;;34.95;12.88;;;;;;;;;;5073012;28;20247;-80
2022/12/12 07:36:13;;;;;;;33.67;12.88;;;;;;;;;;5074743;28;20059;-81
2022/12/12 07:38:40;;;;;;;40.55;13.45;;;;;;;;;;5078978;28;20059;-81
2022/12/12 07:41:08;;;;;;;33.75;13.18;;;;;;;;;;5076235;28;20244;-79
2022/12/12 07:43:35;;;;;;;30.98;11.93;;;;;;;;;;5073365;28;20056;-80
2022/12/12 07:46:09;;;;;;;27.85;11.35;;;;;;;;;;5072973;28;20408;-80
2022/12/12 07:48:36;;;;;;;27.65;10.82;;;;;;;;;;5073910;28;20071;-80
2022/12/12 07:51:02;;;;;;;39.78;12.82;;;;;;;;;;5074278;28;20040;-81
2022/12/12 07:53:29;;;;;;;32.67;11.80;;;;;;;;;;5073360;28;20052;-81
2022/12/12 07:55:55;;;;;;;31.10;11.30;;;;;;;;;;5077161;28;20219;-82
2022/12/12 07:58:22;;;;;;;27.40;11.48;;;;;;;;;;5054459;28;20056;-81
2022/12/12 08:00:48;;;;;;;32.80;12.55;;;;;;;;;;5052507;28;20056;-81
2022/12/12 08:03:14;;;;;;;33.25;12.25;;;;;;;;;;5036576;28;20053;-81
2022/12/12 08:05:41;;;;;;;31.85;12.30;;;;;;;;;;5056330;28;20049;-82
2022/12/12 08:08:08;;;;;;;31.60;11.73;;;;;;;;;;5054102;28;20053;-81
2022/12/12 08:10:37;;;;;;;28.60;11.23;;;;;;;;;;5061687;28;20049;-80
2022/12/12 08:13:03;;;;;;;30.05;12.30;;;;;;;;;;5056852;28;20055;-80
2022/12/12 08:15:30;;;;;;;28.02;11.88;;;;;;;;;;5066928;28;20037;-81
2022/12/12 08:17:56;;;;;;;32.60;12.13;;;;;;;;;;5073623;28;20459;-81
2022/12/12 08:20:22;;;;;;;31.58;11.27;;;;;;;;;;5085076;28;20051;-80
2022/12/12 08:22:49;;;;;;;32.28;12.20;;;;;;;;;;5072834;28;20051;-81
2022/12/12 08:25:15;;;;;;;32.42;11.68;;;;;;;;;;5093249;28;20063;-82
2022/12/12 08:27:42;;;;;;;30.83;11.50;;;;;;;;;;5091421;28;20071;-80
2022/12/12 08:30:08;;;;;;;30.15;11.75;;;;;;;;;;5087457;28;20044;-80
2022/12/12 08:32:35;;;;;;;32.15;11.77;;;;;;;;;;5090267;28;20582;-82
2022/12/12 08:35:02;;;;;;;35.20;11.35;;;;;;;;;;5090692;28;20111;-82
2022/12/12 08:37:28;;;;;;;24.63;11.13;;;;;;;;;;5088711;28;20040;-81
2022/12/12 08:39:55;;;;;;;29.95;12.38;;;;;;;;;;5077612;28;20054;-81
2022/12/12 08:42:21;;;;;;;32.13;12.10;;;;;;;;;;5076495;28;20074;-81
2022/12/12 08:44:48;;;;;;;31.80;12.18;;;;;;;;;;5074133;28;20055;-80
2022/12/12 08:47:14;;;;;;;30.95;11.77;;;;;;;;;;5072128;28;20040;-81
2022/12/12 08:49:41;;;;;;;31.58;12.57;;;;;;;;;;5073907;28;20049;-80
2022/12/12 08:52:09;;;;;;;27.42;12.10;;;;;;;;;;5068744;28;20125;-81
2022/12/12 08:54:35;;;;;;;36.15;11.15;;;;;;;;;;5079200;28;20052;-80
2022/12/12 08:57:02;;;;;;;35.03;12.00;;;;;;;;;;5072029;28;20055;-80
2022/12/12 08:59:29;;;;;;;26.67;10.50;;;;;;;;;;5072231;28;20058;-81
2022/12/12 09:01:55;;;;;;;27.77;10.93;;;;;;;;;;5073612;28;20401;-80
2022/12/12 09:04:21;;;;;;;26.52;10.70;;;;;;;;;;5071973;28;20057;-80
2022/12/12 09:06:48;;;;;;;28.05;10.85;;;;;;;;;;5073123;28;20071;-80
2022/12/12 09:09:14;;;;;;;27.77;10.90;;;;;;;;;;5073320;28;20044;-82
2022/12/12 09:11:41;;;;;;;29.42;11.63;;;;;;;;;;5072930;28;20056;-81
2022/12/12 09:14:07;;;;;;;37.28;13.07;;;;;;;;;;5075578;28;20056;-82
2022/12/12 09:16:33;;;;;;;30.08;11.27;;;;;;;;;;5059182;28;20041;-81
2022/12/12 09:19:00;;;;;;;28.45;12.10;;;;;;;;;;5070286;28;20137;-80
2022/12/12 09:21:26;;;;;;;27.85;11.25;;;;;;;;;;5075578;28;20053;-82
2022/12/12 09:23:53;;;;;;;27.10;10.63;;;;;;;;;;5057883;28;20052;-81
2022/12/12 09:26:19;;;;;;;27.92;11.00;;;;;;;;;;5075558;28;20139;-82
2022/12/12 09:28:46;;;;;;;29.75;11.48;;;;;;;;;;5077260;28;20041;-82
2022/12/12 09:31:12;;;;;;;29.48;10.95;;;;;;;;;;5076059;28;20044;-82
2022/12/12 09:33:39;;;;;;;29.33;11.45;;;;;;;;;;5069065;28;20513;-82
2022/12/12 09:36:06;;;;;;;29.80;11.48;;;;;;;;;;5053868;28;20045;-82
2022/12/12 09:38:33;;;;;;;28.27;11.85;;;;;;;;;;5053400;28;20048;-83
2022/12/12 09:41:09;;;;;;;31.08;12.23;;;;;;;;;;5053684;28;20049;-82
2022/12/12 09:43:37;;;;;;;32.40;11.25;;;;;;;;;;5059023;28;20053;-83
2022/12/12 09:46:12;;;;;;;27.15;10.02;;;;;;;;;;5079248;28;20039;-83
2022/12/12 09:48:43;;;;;;;29.33;11.13;;;;;;;;;;5088404;28;20048;-82
2022/12/12 09:51:10;;;;;;;34.47;12.75;;;;;;;;;;5089692;28;20054;-82
2022/12/12 09:53:38;;;;;;;33.35;12.27;;;;;;;;;;5069387;28;20048;-82
2022/12/12 09:56:10;;;;;;;30.60;10.93;;;;;;;;;;5082309;28;20455;-82
2022/12/12 09:58:46;;;;;;;28.77;11.60;;;;;;;;;;5081943;28;20546;-81
2022/12/12 10:01:20;;;;;;;25.27;10.98;;;;;;;;;;5071728;28;20055;-81
2022/12/12 10:04:05;;;;;;;28.92;11.75;;;;;;;;;;5072480;28;20179;-83
2022/12/12 10:06:35;;;;;;;28.10;11.35;;;;;;;;;;5072409;28;20059;-82
2022/12/12 10:09:09;;;;;;;28.88;11.07;;;;;;;;;;5073904;28;20076;-82
2022/12/12 10:11:49;;;;;;;30.60;12.15;;;;;;;;;;5058523;28;20045;-83
2022/12/12 10:14:25;;;;;;;29.58;10.85;;;;;;;;;;5071678;28;20068;-81
2022/12/12 10:16:51;;;;;;;29.67;11.52;;;;;;;;;;5056066;28;20284;-84
2022/12/12 10:19:25;;;;;;;27.52;10.50;;;;;;;;;;5037859;28;20049;-82
2022/12/12 10:21:53;;;;;;;28.60;10.60;;;;;;;;;;5055721;28;20135;-81
2022/12/12 10:24:35;;;;;;;30.50;10.75;;;;;;;;;;5055237;28;20053;-81
2022/12/12 10:27:08;;;;;;;27.65;11.38;;;;;;;;;;5056708;28;20045;-83
2022/12/12 10:29:34;;;;;;;23.38;11.02;;;;;;;;;;5054684;28;20041;-82
2022/12/12 10:32:09;;;;;;;26.90;11.05;;;;;;;;;;5055391;28;20048;-83
2022/12/12 10:34:36;;;;;;;30.63;11.68;;;;;;;;;;5056114;28;20049;-84
2022/12/12 10:37:14;;;;;;;29.15;11.40;;;;;;;;;;5056776;28;20063;-84
2022/12/12 10:39:40;;;;;;;32.63;12.20;;;;;;;;;;5057178;28;20045;-83
2022/12/12 10:42:13;;;;;;;29.27;11.88;;;;;;;;;;5055923;28;20547;-79
2022/12/12 10:44:42;;;;;;;29.77;11.25;;;;;;;;;;5035447;28;20053;-81
2022/12/12 10:47:13;;;;;;;27.15;10.63;;;;;;;;;;5055968;28;20524;-83
2022/12/12 10:49:40;;;;;;;29.25;11.98;;;;;;;;;;5055673;28;20060;-83
2022/12/12 10:52:25;;;;;;;24.85;11.55;;;;;;;;;;5054962;28;20049;-81
2022/12/12 10:54:56;;;;;;;26.42;10.90;;;;;;;;;;5048443;28;20571;-79
2022/12/12 10:57:24;;;;;;;28.75;10.65;;;;;;;;;;5054812;28;20053;-81
2022/12/12 10:59:51;;;;;;;28.58;11.75;;;;;;;;;;5052123;28;20524;-81
2022/12/12 11:02:25;;;;;;;30.13;11.05;;;;;;;;;;5070066;28;20108;-80
2022/12/12 11:05:04;;;;;;;27.80;10.75;;;;;;;;;;5071492;28;20135;-80
2022/12/12 11:07:35;;;;;;;25.17;10.85;;;;;;;;;;5053624;28;20135;-81
2022/12/12 11:10:12;;;;;;;23.73;9.85;;;;;;;;;;5071023;28;20052;-82
2022/12/12 11:12:38;;;;;;;28.10;10.95;;;;;;;;;;5069747;28;20048;-80
2022/12/12 11:15:11;;;;;;;24.75;10.23;;;;;;;;;;5062604;28;20055;-81
2022/12/12 11:17:38;;;;;;;25.80;10.73;;;;;;;;;;5061037;28;20544;-82
2022/12/12 11:20:07;;;;;;;22.98;9.43;;;;;;;;;;5071034;28;20516;-82
2022/12/12 11:22:37;;;;;;;22.20;10.05;;;;;;;;;;5074436;28;20066;-81
2022/12/12 11:25:04;;;;;;;26.42;10.63;;;;;;;;;;5059112;28;20536;-83
2022/12/12 11:27:36;;;;;;;24.23;10.35;;;;;;;;;;5078510;28;20151;-83
2022/12/12 11:30:04;;;;;;;24.95;10.07;;;;;;;;;;5076817;28;20658;-83
2022/12/12 11:32:31;;;;;;;29.08;11.57;;;;;;;;;;5077829;28;20051;-81
2022/12/12 11:34:59;;;;;;;27.75;10.93;;;;;;;;;;5078875;28;20044;-82
2022/12/12 11:37:27;;;;;;;26.58;10.68;;;;;;;;;;5078104;28;20048;-83
2022/12/12 11:39:55;;;;;;;27.65;10.38;;;;;;;;;;5077453;28;20052;-84
2022/12/12 11:42:31;;;;;;;26.33;10.60;;;;;;;;;;5077834;28;20044;-82
2022/12/12 11:45:07;;;;;;;27.25;11.30;;;;;;;;;;5077050;28;20063;-83
2022/12/12 11:47:39;;;;;;;25.73;11.20;;;;;;;;;;5078530;28;20440;-83
2022/12/12 11:50:18;;;;;;;26.13;11.02;;;;;;;;;;5079649;28;20044;-80
2022/12/12 11:52:45;;;;;;;30.48;11.75;;;;;;;;;;5077085;28;20048;-81
2022/12/12 11:55:15;;;;;;;26.33;11.27;;;;;;;;;;5077338;28;20101;-82
2022/12/12 11:57:47;;;;;;;26.92;11.25;;;;;;;;;;5076577;28;20099;-83
2022/12/12 12:00:17;;;;;;;28.52;11.02;;;;;;;;;;5076008;28;20048;-82
2022/12/12 12:02:50;;;;;;;25.88;11.82;;;;;;;;;;5076660;28;20063;-83
2022/12/12 12:05:17;;;;;;;27.30;11.38;;;;;;;;;;5059933;28;20139;-82
2022/12/12 12:07:46;;;;;;;25.15;10.90;;;;;;;;;;5077358;28;20063;-82
2022/12/12 12:10:12;;;;;;;24.95;10.13;;;;;;;;;;5076716;28;20567;-82
2022/12/12 12:12:48;;;;;;;22.83;10.52;;;;;;;;;;5075755;28;20113;-82
2022/12/12 12:15:21;;;;;;;28.08;11.52;;;;;;;;;;5077004;28;20044;-83
2022/12/12 12:17:48;;;;;;;29.88;12.68;;;;;;;;;;5050303;28;20057;-83
2022/12/12 12:20:33;;;;;;;26.13;11.18;;;;;;;;;;5058831;28;20496;-82
2022/12/12 12:23:09;;;;;;;32.97;12.48;;;;;;;;;;5069467;28;20053;-82
2022/12/12 12:25:44;;;;;;;32.60;11.68;;;;;;;;;;5076190;28;20518;-83
2022/12/12 12:28:29;;;;;;;33.75;12.75;;;;;;;;;;5075752;28;20048;-83
2022/12/12 12:31:02;;;;;;;34.15;13.20;;;;;;;;;;5075548;28;20044;-82
2022/12/12 12:33:44;;;;;;;28.67;12.75;;;;;;;;;;5075073;28;20044;-83
2022/12/12 12:36:27;;;;;;;33.40;13.60;;;;;;;;;;5075292;28;20062;-81
2022/12/12 12:38:53;;;;;;;35.08;13.02;;;;;;;;;;5075771;28;20052;-83
2022/12/12 12:41:34;;;;;;;31.15;13.55;;;;;;;;;;5076300;28;20045;-83
2022/12/12 12:44:01;;;;;;;32.97;13.05;;;;;;;;;;5079892;28;20131;-82
2022/12/12 12:46:27;;;;;;;30.27;11.95;;;;;;;;;;5076359;28;20096;-82
2022/12/12 12:48:57;;;;;;;33.88;13.13;;;;;;;;;;5095898;28;20264;-82
2022/12/12 12:51:33;;;;;;;34.72;13.38;;;;;;;;;;5094705;28;20076;-82
2022/12/12 12:54:18;;;;;;;36.53;14.05;;;;;;;;;;5093632;28;20046;-82
2022/12/12 12:56:48;;;;;;;36.47;13.93;;;;;;;;;;5093662;28;20036;-83
2022/12/12 12:59:17;;;;;;;36.90;15.20;;;;;;;;;;5093763;28;20112;-83
2022/12/12 13:01:45;;;;;;;42.40;15.27;;;;;;;;;;5106610;28;20115;-82
2022/12/12 13:04:38;;;;;;;38.88;14.65;;;;;;;;;;5090457;28;20059;-82
2022/12/12 13:07:13;;;;;;;39.83;15.82;;;;;;;;;;5070026;28;20112;-83
2022/12/12 13:09:46;;;;;;;45.08;16.85;;;;;;;;;;5094611;28;20112;-84
2022/12/12 13:12:31;;;;;;;41.55;16.00;;;;;;;;;;5075348;28;20120;-79
2022/12/12 13:15:05;;;;;;;38.28;15.23;;;;;;;;;;5093046;28;20047;-82
2022/12/12 13:17:34;;;;;;;38.60;15.32;;;;;;;;;;5073674;28;20043;-82
2022/12/12 13:20:01;;;;;;;42.97;15.57;;;;;;;;;;5068760;28;20051;-81
2022/12/12 13:22:30;;;;;;;42.30;15.27;;;;;;;;;;5053865;28;20041;-81
2022/12/12 13:25:10;;;;;;;42.08;16.08;;;;;;;;;;5054187;28;20068;-82
2022/12/12 13:27:45;;;;;;;35.25;14.52;;;;;;;;;;5037297;28;20413;-83
2022/12/12 13:30:11;;;;;;;;;;;;;;;;;;5052956;28;20045;-83
2022/12/12 13:33:17;;;;;;;37.25;13.32;;;;;;;;;;5052067;28;20293;-81
2022/12/12 13:35:46;;;;;;;34.97;14.02;;;;;;;;;;4990883;28;20053;-82
2022/12/12 13:38:21;;;;;;;37.00;14.73;;;;;;;;;;4990858;28;20523;-82
2022/12/12 13:40:54;;;;;;;29.08;13.07;;;;;;;;;;5007821;28;20075;-82
2022/12/12 13:43:44;;;;;;;34.63;12.38;;;;;;;;;;5050731;28;20052;-82
2022/12/12 13:46:23;;;;;;;32.30;12.45;;;;;;;;;;5043406;28;20045;-82
2022/12/12 13:49:01;;;;;;;30.17;12.75;;;;;;;;;;5052575;28;20045;-82
2022/12/12 13:51:27;;;;;;;35.58;12.80;;;;;;;;;;5052220;28;20052;-82
2022/12/12 13:54:06;;;;;;;35.17;13.02;;;;;;;;;;5051282;28;20049;-82
2022/12/12 13:56:42;;;;;;;32.90;13.40;;;;;;;;;;5052598;28;20052;-79
2022/12/12 13:59:32;;;;;;;26.98;11.73;;;;;;;;;;5052306;28;20045;-81
2022/12/12 14:01:58;;;;;;;28.02;11.32;;;;;;;;;;5040872;28;20070;-82
2022/12/12 14:04:29;;;;;;;31.75;12.85;;;;;;;;;;5053812;28;20464;-82
2022/12/12 14:07:03;;;;;;;31.83;12.07;;;;;;;;;;5051661;28;20043;-81
2022/12/12 14:09:33;;;;;;;31.25;12.10;;;;;;;;;;5051618;28;20052;-80
2022/12/12 14:12:24;;;;;;;32.08;12.57;;;;;;;;;;5049915;28;20091;-81
2022/12/12 14:15:16;;;;;;;35.65;12.40;;;;;;;;;;5051467;28;20069;-81
2022/12/12 14:17:49;;;;;;;29.98;12.65;;;;;;;;;;5053814;28;20049;-82
2022/12/12 14:20:23;;;;;;;35.78;13.77;;;;;;;;;;5053497;28;20068;-82
2022/12/12 14:22:49;;;;;;;35.97;13.00;;;;;;;;;;5067161;28;20041;-82
2022/12/12 14:25:18;;;;;;;32.25;13.15;;;;;;;;;;5036048;28;20040;-81
2022/12/12 14:27:50;;;;;;;38.22;12.90;;;;;;;;;;5052940;28;20045;-80
2022/12/12 14:30:16;;;;;;;38.45;13.75;;;;;;;;;;5052500;28;20068;-82
2022/12/12 14:33:06;;;;;;;31.30;12.98;;;;;;;;;;5035235;28;20074;-82
2022/12/12 14:35:32;;;;;;;30.42;11.60;;;;;;;;;;5059054;28;20041;-82
2022/12/12 14:37:58;;;;;;;32.70;12.32;;;;;;;;;;5045211;28;20287;-81
2022/12/12 14:40:38;;;;;;;30.65;12.10;;;;;;;;;;5061776;28;20048;-81
2022/12/12 14:43:36;;;;;;;30.35;11.70;;;;;;;;;;5051763;28;20067;-81
2022/12/12 14:46:04;;;;;;;28.95;11.43;;;;;;;;;;5021472;28;20075;-82
2022/12/12 14:48:30;;;;;;;28.23;11.25;;;;;;;;;;5053571;28;20505;-82